LFCK

Castres-Mazamet Airport

Airport
ICAO code
LFCK
IATA Code
DCM
Summary
ICAO Region
EUR
ICAO Territory
Location

Lagarrigue, Midi-Pyrenees

Serving
Castres
Elevation
788 ft
Coordinates
43° 33' 22" N , 2° 17' 21" E
Metar
Observation
LFCK 030130Z AUTO 10002KT 8000 SCT045 SCT150 BKN170 03/02 Q1012
Station
Castres-Mazamet
Date/Time
2022-12-03 01:30:00
Wind direction
100°
Wind speed
02 kts
Lowest cloud amount
scattered clouds
Temperature
3°C
Dew point
2°C
Humidity
93%
QNH
1012 hPa
Weather condition
n/a

Runways

Designator Length Width Surface Rops
14/32 1825 30 CON No/No

Airport map

Aerial View

SKYbrary Partners:

Safety knowledge contributed by: